Terminal Aerodrome Forecast
Issued by NWS

Home | Current Version | Previous Version | Graphics & Text | Print | Product List | Glossary On
Versions: 1 2 3 4 5 6 7 8 9 10 11 12 13 14 15 16 17 18 19 20 21
000
FTUS43 KGRB 160520
TAFMTW
TAF
KMTW 160520Z 1606/1706 00000KT P6SM -SN BKN025 OVC070
      TEMPO 1606/1609 3SM -SN BKN015
     FM160900 04005KT 3SM -SN OVC025
      TEMPO 1609/1613 1 1/2SM -SN BKN015
     FM161500 05009KT P6SM -SN SCT015 BKN030
     FM162000 07008KT P6SM OVC025=

USA.gov is the U.S. government's official web portal to all federal, state and local government web resources and services.